Time;durP1;ratioP1;P1;durP2;ratioP2;P2;SDS_P1;SDS_P2;PMS_P1;PMS_P2;Temp;Humidity;BMP_temperature;BMP_pressure;BME280_temperature;BME280_humidity;BME280_pressure;Samples;Min_cycle;Max_cycle;Signal;HPM_P1;HPM_P2
2024/01/03 00:01:14;;;;;;;2.33;1.13;;;;;;;;;;5008005;28;20617;-74
2024/01/03 00:03:40;;;;;;;2.10;1.00;;;;;;;;;;5006561;28;20273;-74
2024/01/03 00:06:07;;;;;;;1.37;0.87;;;;;;;;;;5022706;28;20200;-74
2024/01/03 00:08:38;;;;;;;1.50;1.20;;;;;;;;;;5016258;28;20677;-75
2024/01/03 00:11:04;;;;;;;2.07;1.13;;;;;;;;;;5012603;28;20199;-74
2024/01/03 00:13:33;;;;;;;6.53;3.10;;;;;;;;;;5019373;28;20288;-74
2024/01/03 00:15:59;;;;;;;1.27;1.10;;;;;;;;;;5027851;28;20272;-74
2024/01/03 00:18:31;;;;;;;2.10;1.13;;;;;;;;;;5021952;28;20184;-74
2024/01/03 00:20:58;;;;;;;1.93;1.00;;;;;;;;;;5021432;28;20196;-74
2024/01/03 00:23:27;;;;;;;4.57;1.20;;;;;;;;;;5013674;28;20222;-75
2024/01/03 00:25:54;;;;;;;1.87;0.77;;;;;;;;;;5024449;28;20198;-74
2024/01/03 00:28:20;;;;;;;1.37;0.80;;;;;;;;;;5014917;28;20206;-74
2024/01/03 00:30:46;;;;;;;1.33;0.80;;;;;;;;;;5019919;28;20667;-74
2024/01/03 00:33:12;;;;;;;2.00;0.70;;;;;;;;;;5001202;28;20207;-74
2024/01/03 00:35:39;;;;;;;1.30;0.80;;;;;;;;;;5016567;28;20190;-75
2024/01/03 00:38:05;;;;;;;2.90;1.00;;;;;;;;;;5001533;28;20203;-74
2024/01/03 00:40:31;;;;;;;1.30;0.80;;;;;;;;;;5012255;28;20182;-74
2024/01/03 00:42:57;;;;;;;2.30;0.80;;;;;;;;;;5017270;28;20206;-74
2024/01/03 00:45:23;;;;;;;1.67;0.83;;;;;;;;;;5016967;28;20191;-74
2024/01/03 00:47:50;;;;;;;0.87;0.70;;;;;;;;;;5011480;28;20661;-74
2024/01/03 00:50:17;;;;;;;1.50;0.70;;;;;;;;;;5017928;28;20682;-74
2024/01/03 00:52:43;;;;;;;1.87;0.70;;;;;;;;;;5001314;28;20277;-74
2024/01/03 00:55:09;;;;;;;2.23;0.70;;;;;;;;;;5016740;28;20187;-74
2024/01/03 00:57:37;;;;;;;1.00;0.60;;;;;;;;;;5022454;28;20186;-74
2024/01/03 01:00:04;;;;;;;0.83;0.47;;;;;;;;;;5011664;28;20671;-74
2024/01/03 01:02:30;;;;;;;4.23;1.47;;;;;;;;;;5012618;28;20295;-74
2024/01/03 01:04:56;;;;;;;1.90;1.00;;;;;;;;;;5020853;28;20202;-75
2024/01/03 01:07:22;;;;;;;2.53;0.90;;;;;;;;;;5018499;28;20274;-74
2024/01/03 01:09:48;;;;;;;12.73;5.90;;;;;;;;;;5027065;28;20179;-74
2024/01/03 01:12:14;;;;;;;7.00;3.70;;;;;;;;;;5030916;28;20213;-74
2024/01/03 01:14:41;;;;;;;4.67;1.70;;;;;;;;;;5022994;28;20186;-74
2024/01/03 01:17:07;;;;;;;1.73;1.00;;;;;;;;;;5026040;28;20198;-74
2024/01/03 01:19:34;;;;;;;2.00;0.80;;;;;;;;;;5022851;28;20234;-74
2024/01/03 01:22:00;;;;;;;1.60;1.00;;;;;;;;;;4990860;28;20628;-74
2024/01/03 01:24:26;;;;;;;1.87;0.93;;;;;;;;;;5013163;28;20309;-74
2024/01/03 01:26:52;;;;;;;1.73;0.90;;;;;;;;;;5000289;28;20569;-74
2024/01/03 01:29:18;;;;;;;1.17;0.80;;;;;;;;;;5018666;28;20257;-74
2024/01/03 01:31:47;;;;;;;1.30;0.90;;;;;;;;;;5022313;28;20213;-73
2024/01/03 01:34:13;;;;;;;0.83;0.80;;;;;;;;;;5023701;28;20784;-74
2024/01/03 01:36:39;;;;;;;0.80;0.80;;;;;;;;;;5024523;28;20186;-74
2024/01/03 01:39:06;;;;;;;2.37;1.00;;;;;;;;;;5021145;28;20535;-74
2024/01/03 01:41:32;;;;;;;1.33;0.80;;;;;;;;;;5024266;28;20646;-74
2024/01/03 01:43:58;;;;;;;1.10;0.83;;;;;;;;;;5018013;28;22087;-74
2024/01/03 01:46:25;;;;;;;1.30;1.00;;;;;;;;;;5023590;28;20186;-74
2024/01/03 01:48:51;;;;;;;1.73;1.10;;;;;;;;;;5025551;28;20363;-74
2024/01/03 01:51:18;;;;;;;1.20;0.90;;;;;;;;;;5030167;28;20175;-74
2024/01/03 01:53:44;;;;;;;2.63;1.10;;;;;;;;;;5019137;28;20702;-74
2024/01/03 01:56:11;;;;;;;3.67;1.10;;;;;;;;;;5026950;28;20202;-74
2024/01/03 01:58:38;;;;;;;4.17;1.17;;;;;;;;;;5023756;28;20237;-74
2024/01/03 02:01:05;;;;;;;2.67;0.90;;;;;;;;;;5013039;28;20256;-74
2024/01/03 02:03:31;;;;;;;2.17;0.97;;;;;;;;;;5019882;28;20203;-74
2024/01/03 02:05:57;;;;;;;1.60;0.80;;;;;;;;;;5027046;28;20709;-74
2024/01/03 02:08:24;;;;;;;1.67;1.07;;;;;;;;;;5009025;28;20215;-74
2024/01/03 02:10:51;;;;;;;6.00;1.20;;;;;;;;;;5021459;28;20191;-74
2024/01/03 02:13:17;;;;;;;2.60;1.10;;;;;;;;;;5006845;28;20212;-74
2024/01/03 02:15:43;;;;;;;5.43;1.00;;;;;;;;;;5023848;28;20297;-74
2024/01/03 02:18:12;;;;;;;4.60;1.07;;;;;;;;;;5022102;28;20222;-74
2024/01/03 02:20:39;;;;;;;3.93;1.10;;;;;;;;;;5017775;28;20249;-74
2024/01/03 02:23:05;;;;;;;5.73;1.20;;;;;;;;;;5023624;28;20242;-74
2024/01/03 02:25:31;;;;;;;3.77;1.30;;;;;;;;;;5021397;28;20643;-74
2024/01/03 02:27:57;;;;;;;5.03;1.17;;;;;;;;;;5027879;28;20219;-74
2024/01/03 02:30:23;;;;;;;4.47;1.20;;;;;;;;;;5023170;28;20523;-74
2024/01/03 02:32:50;;;;;;;3.27;1.10;;;;;;;;;;5028564;28;20206;-74
2024/01/03 02:35:16;;;;;;;3.73;1.27;;;;;;;;;;5016799;28;20186;-74
2024/01/03 02:37:42;;;;;;;4.20;1.40;;;;;;;;;;5025162;28;20809;-74
2024/01/03 02:40:09;;;;;;;3.63;1.20;;;;;;;;;;5017509;28;20274;-74
2024/01/03 02:42:35;;;;;;;6.97;1.33;;;;;;;;;;5020170;28;20210;-74
2024/01/03 02:45:01;;;;;;;6.33;1.30;;;;;;;;;;5025501;28;20212;-74
2024/01/03 02:47:28;;;;;;;3.77;1.23;;;;;;;;;;5024499;28;20210;-74
2024/01/03 02:49:58;;;;;;;4.13;1.10;;;;;;;;;;5023594;28;20183;-74
2024/01/03 02:52:25;;;;;;;4.93;1.30;;;;;;;;;;5022338;28;20206;-74
2024/01/03 02:54:52;;;;;;;3.33;1.43;;;;;;;;;;5016491;28;20191;-74
2024/01/03 02:57:18;;;;;;;5.00;1.40;;;;;;;;;;5022627;28;20741;-74
2024/01/03 02:59:44;;;;;;;3.50;1.30;;;;;;;;;;5017515;28;20198;-74
2024/01/03 03:02:10;;;;;;;4.30;1.70;;;;;;;;;;5025641;28;20585;-74
2024/01/03 03:04:36;;;;;;;6.70;1.70;;;;;;;;;;5019702;28;20197;-74
2024/01/03 03:07:02;;;;;;;6.73;1.60;;;;;;;;;;5023963;28;20213;-74
2024/01/03 03:09:28;;;;;;;8.27;2.03;;;;;;;;;;5016836;28;20210;-74
2024/01/03 03:11:54;;;;;;;6.83;1.63;;;;;;;;;;5023776;28;20215;-74
2024/01/03 03:14:21;;;;;;;7.20;1.40;;;;;;;;;;5014831;28;20614;-74
2024/01/03 03:16:47;;;;;;;3.70;1.40;;;;;;;;;;5023930;28;20228;-74
2024/01/03 03:19:13;;;;;;;5.03;1.20;;;;;;;;;;5022483;28;20183;-74
2024/01/03 03:21:39;;;;;;;5.20;1.57;;;;;;;;;;5027859;28;20289;-74
2024/01/03 03:24:06;;;;;;;3.93;1.20;;;;;;;;;;5016603;28;20236;-74
2024/01/03 03:26:32;;;;;;;4.60;1.40;;;;;;;;;;5015333;28;20235;-74
2024/01/03 03:28:58;;;;;;;3.27;1.37;;;;;;;;;;5018930;28;20214;-74
2024/01/03 03:31:24;;;;;;;2.37;0.90;;;;;;;;;;5016899;28;20186;-74
2024/01/03 03:33:50;;;;;;;1.97;1.00;;;;;;;;;;5019527;28;20191;-74
2024/01/03 03:36:16;;;;;;;2.87;0.83;;;;;;;;;;5022863;28;20186;-74
2024/01/03 03:38:42;;;;;;;3.07;0.90;;;;;;;;;;5023804;28;20282;-74
2024/01/03 03:41:12;;;;;;;3.57;0.90;;;;;;;;;;5018342;28;20182;-74
2024/01/03 03:43:39;;;;;;;1.60;0.80;;;;;;;;;;5022017;28;20221;-74
2024/01/03 03:46:07;;;;;;;2.23;0.90;;;;;;;;;;5023542;28;20185;-74
2024/01/03 03:48:34;;;;;;;2.73;1.00;;;;;;;;;;5025376;28;20210;-74
2024/01/03 03:51:03;;;;;;;2.90;0.93;;;;;;;;;;5024587;28;20190;-74
2024/01/03 03:53:29;;;;;;;3.03;1.10;;;;;;;;;;5027178;28;20213;-74
2024/01/03 03:55:55;;;;;;;2.07;0.90;;;;;;;;;;5030861;28;20191;-74
2024/01/03 03:58:21;;;;;;;2.77;1.07;;;;;;;;;;5022492;28;20642;-74
2024/01/03 04:00:48;;;;;;;2.40;0.83;;;;;;;;;;5028952;28;20264;-74
2024/01/03 04:03:14;;;;;;;3.03;1.03;;;;;;;;;;5029131;28;20636;-74
2024/01/03 04:05:40;;;;;;;2.33;0.93;;;;;;;;;;5024036;28;20193;-74
2024/01/03 04:08:06;;;;;;;5.20;1.10;;;;;;;;;;5027190;28;20248;-74
2024/01/03 04:10:32;;;;;;;4.37;1.20;;;;;;;;;;5019897;28;20176;-74
2024/01/03 04:12:59;;;;;;;5.43;1.30;;;;;;;;;;5026184;28;20214;-74
2024/01/03 04:15:26;;;;;;;5.33;2.17;;;;;;;;;;5027928;28;20643;-74
2024/01/03 04:17:52;;;;;;;4.70;2.40;;;;;;;;;;5023772;28;20194;-73
2024/01/03 04:20:19;;;;;;;6.23;1.90;;;;;;;;;;5019022;28;20674;-74
2024/01/03 04:22:45;;;;;;;2.83;1.60;;;;;;;;;;5032468;28;20728;-74
2024/01/03 04:25:12;;;;;;;5.87;1.57;;;;;;;;;;5023309;28;20273;-74
2024/01/03 04:27:38;;;;;;;5.80;1.63;;;;;;;;;;5028679;28;20210;-74
2024/01/03 04:30:05;;;;;;;4.43;1.57;;;;;;;;;;5027358;28;20189;-74
2024/01/03 04:32:31;;;;;;;2.87;1.30;;;;;;;;;;5024426;28;20474;-74
2024/01/03 04:34:57;;;;;;;4.23;1.37;;;;;;;;;;5027998;28;20599;-74
2024/01/03 04:37:23;;;;;;;3.10;1.20;;;;;;;;;;5030237;28;20183;-74
2024/01/03 04:39:50;;;;;;;4.10;1.47;;;;;;;;;;5028233;28;20213;-74
2024/01/03 04:42:16;;;;;;;3.60;1.67;;;;;;;;;;5025788;28;20217;-74
2024/01/03 04:44:42;;;;;;;3.57;1.40;;;;;;;;;;5029239;28;20190;-74
2024/01/03 04:47:09;;;;;;;3.23;1.37;;;;;;;;;;5023233;28;20865;-74
2024/01/03 04:49:35;;;;;;;6.37;1.63;;;;;;;;;;5025955;28;20258;-74
2024/01/03 04:52:02;;;;;;;6.27;1.60;;;;;;;;;;5024541;28;20278;-74
2024/01/03 04:54:29;;;;;;;4.43;1.47;;;;;;;;;;5018788;28;20611;-74
2024/01/03 04:56:56;;;;;;;5.30;1.50;;;;;;;;;;5023826;28;20225;-74
2024/01/03 04:59:22;;;;;;;7.90;1.70;;;;;;;;;;5023461;28;20635;-74
2024/01/03 05:01:48;;;;;;;5.17;1.60;;;;;;;;;;5017847;28;20199;-74
2024/01/03 05:04:14;;;;;;;4.20;1.40;;;;;;;;;;5023430;28;20182;-74
2024/01/03 05:06:40;;;;;;;6.03;1.67;;;;;;;;;;5024137;28;20426;-74
2024/01/03 05:09:07;;;;;;;4.57;1.60;;;;;;;;;;5025073;28;20220;-74
2024/01/03 05:11:33;;;;;;;5.63;1.73;;;;;;;;;;5023126;28;20237;-74
2024/01/03 05:13:59;;;;;;;4.37;1.63;;;;;;;;;;5025694;28;20465;-74
2024/01/03 05:16:26;;;;;;;5.87;1.43;;;;;;;;;;5020452;28;20210;-74
2024/01/03 05:18:52;;;;;;;3.37;1.40;;;;;;;;;;5020569;28;20195;-74
2024/01/03 05:21:18;;;;;;;6.67;1.67;;;;;;;;;;5023141;28;20234;-74
2024/01/03 05:23:44;;;;;;;3.57;1.30;;;;;;;;;;5025271;28;20195;-74
2024/01/03 05:26:11;;;;;;;5.73;1.80;;;;;;;;;;5018636;28;20194;-74
2024/01/03 05:28:37;;;;;;;6.70;1.77;;;;;;;;;;5026103;28;20285;-74
2024/01/03 05:31:03;;;;;;;6.40;1.60;;;;;;;;;;5027642;28;20672;-74
2024/01/03 05:33:30;;;;;;;6.03;1.60;;;;;;;;;;5021438;28;20210;-74
2024/01/03 05:35:56;;;;;;;6.27;1.70;;;;;;;;;;5029628;28;20202;-74
2024/01/03 05:38:22;;;;;;;4.03;1.27;;;;;;;;;;5028505;28;20182;-74
2024/01/03 05:40:50;;;;;;;7.87;1.50;;;;;;;;;;5017115;28;20190;-74
2024/01/03 05:43:17;;;;;;;4.90;1.70;;;;;;;;;;5018311;28;20576;-74
2024/01/03 05:45:43;;;;;;;7.50;1.60;;;;;;;;;;5022284;28;20182;-74
2024/01/03 05:48:09;;;;;;;7.37;1.80;;;;;;;;;;5017618;28;20215;-74
2024/01/03 05:50:36;;;;;;;4.80;1.43;;;;;;;;;;5022540;28;20249;-74
2024/01/03 05:53:02;;;;;;;3.60;1.70;;;;;;;;;;5019872;28;20207;-74
2024/01/03 05:55:29;;;;;;;5.33;1.70;;;;;;;;;;5019286;28;20186;-74
2024/01/03 05:57:55;;;;;;;9.17;2.40;;;;;;;;;;5025265;28;20568;-74
2024/01/03 06:00:21;;;;;;;7.83;2.17;;;;;;;;;;5020692;28;20344;-74
2024/01/03 06:02:48;;;;;;;7.23;1.80;;;;;;;;;;5019709;28;20208;-74
2024/01/03 06:05:16;;;;;;;6.97;1.60;;;;;;;;;;5018792;28;20213;-74
2024/01/03 06:07:44;;;;;;;8.17;1.90;;;;;;;;;;5027302;28;20583;-74
2024/01/03 06:10:12;;;;;;;6.63;2.10;;;;;;;;;;5024448;28;20221;-74
2024/01/03 06:12:39;;;;;;;5.73;1.83;;;;;;;;;;5026798;28;20272;-74
2024/01/03 06:15:06;;;;;;;6.67;1.80;;;;;;;;;;5023561;28;20358;-74
2024/01/03 06:17:32;;;;;;;8.33;1.90;;;;;;;;;;5017207;28;20559;-74
2024/01/03 06:19:58;;;;;;;6.47;1.93;;;;;;;;;;5023801;28;20236;-74
2024/01/03 06:22:25;;;;;;;8.07;1.90;;;;;;;;;;5023599;28;20202;-74
2024/01/03 06:24:51;;;;;;;5.80;1.73;;;;;;;;;;5022500;28;20601;-74
2024/01/03 06:27:17;;;;;;;6.87;1.87;;;;;;;;;;5017871;28;20274;-74
2024/01/03 06:29:43;;;;;;;6.70;1.80;;;;;;;;;;5023450;28;20229;-74
2024/01/03 06:32:09;;;;;;;7.50;1.80;;;;;;;;;;5018630;28;20808;-74
2024/01/03 06:34:35;;;;;;;6.73;1.90;;;;;;;;;;5022897;28;20183;-74
2024/01/03 06:37:01;;;;;;;5.90;1.60;;;;;;;;;;5017188;28;20179;-74
2024/01/03 06:39:27;;;;;;;4.93;1.57;;;;;;;;;;5023181;28;20639;-74
2024/01/03 06:41:53;;;;;;;5.87;1.83;;;;;;;;;;5025400;28;20202;-74
2024/01/03 06:44:20;;;;;;;7.10;2.03;;;;;;;;;;5013907;28;20811;-74
2024/01/03 06:46:46;;;;;;;8.63;1.80;;;;;;;;;;5008436;28;20240;-74
2024/01/03 06:49:12;;;;;;;5.88;1.80;;;;;;;;;;5016935;28;21017;-76
2024/01/03 06:51:39;;;;;;;8.03;1.37;;;;;;;;;;5025994;28;20182;-76
2024/01/03 06:54:05;;;;;;;6.17;1.70;;;;;;;;;;5021310;28;20222;-75
2024/01/03 06:56:31;;;;;;;5.93;1.80;;;;;;;;;;5000928;28;20689;-75
2024/01/03 06:58:58;;;;;;;5.97;1.53;;;;;;;;;;5018884;28;20616;-76
2024/01/03 07:01:24;;;;;;;5.63;1.90;;;;;;;;;;5020490;28;20306;-75
2024/01/03 07:03:50;;;;;;;7.93;1.75;;;;;;;;;;5017654;28;20449;-76
2024/01/03 07:06:16;;;;;;;6.65;1.90;;;;;;;;;;5024246;28;20945;-76
2024/01/03 07:08:42;;;;;;;5.17;2.00;;;;;;;;;;5022407;28;20702;-77
2024/01/03 07:11:10;;;;;;;5.87;1.60;;;;;;;;;;5025932;28;20190;-76
2024/01/03 07:13:36;;;;;;;6.47;1.87;;;;;;;;;;5018082;28;20249;-79
2024/01/03 07:16:02;;;;;;;5.97;1.57;;;;;;;;;;5003842;28;20191;-76
2024/01/03 07:18:28;;;;;;;6.23;1.40;;;;;;;;;;5020567;28;20677;-78
2024/01/03 07:20:55;;;;;;;4.40;1.43;;;;;;;;;;5030028;28;20212;-77
2024/01/03 07:23:21;;;;;;;7.83;1.77;;;;;;;;;;5020879;28;20214;-76
2024/01/03 07:25:47;;;;;;;4.87;1.50;;;;;;;;;;5021682;28;20198;-83
2024/01/03 07:28:14;;;;;;;6.37;1.90;;;;;;;;;;5001530;28;20575;-77
2024/01/03 07:30:40;;;;;;;6.97;1.90;;;;;;;;;;5026069;28;20191;-76
2024/01/03 07:33:06;;;;;;;5.13;1.70;;;;;;;;;;5029365;28;20203;-80
2024/01/03 07:35:32;;;;;;;6.10;1.93;;;;;;;;;;5011420;28;20186;-79
2024/01/03 07:37:59;;;;;;;7.40;1.90;;;;;;;;;;5023570;28;20194;-78
2024/01/03 07:40:25;;;;;;;10.90;3.20;;;;;;;;;;5029684;28;20189;-78
2024/01/03 07:42:51;;;;;;;10.47;4.13;;;;;;;;;;5020538;28;20257;-78
2024/01/03 07:45:17;;;;;;;9.40;4.30;;;;;;;;;;5020776;28;20190;-77
2024/01/03 07:47:43;;;;;;;11.73;4.30;;;;;;;;;;5020254;28;20203;-77
2024/01/03 07:50:09;;;;;;;8.17;3.43;;;;;;;;;;5032588;28;20182;-78
2024/01/03 07:52:36;;;;;;;10.00;3.60;;;;;;;;;;5028931;28;20276;-77
2024/01/03 07:55:02;;;;;;;8.70;3.63;;;;;;;;;;5020661;28;20200;-77
2024/01/03 07:57:29;;;;;;;6.80;2.67;;;;;;;;;;5022147;28;20662;-77
2024/01/03 07:59:55;;;;;;;10.93;2.90;;;;;;;;;;5020800;28;20281;-77
2024/01/03 08:02:21;;;;;;;5.13;2.33;;;;;;;;;;5021136;28;20210;-78
2024/01/03 08:04:47;;;;;;;9.80;3.50;;;;;;;;;;5027621;28;20252;-77
2024/01/03 08:07:14;;;;;;;8.13;4.07;;;;;;;;;;5028974;28;20191;-77
2024/01/03 08:09:40;;;;;;;10.50;3.93;;;;;;;;;;5026696;28;20190;-77
2024/01/03 08:12:06;;;;;;;6.17;3.03;;;;;;;;;;5027610;28;20207;-77
2024/01/03 08:14:34;;;;;;;7.03;2.27;;;;;;;;;;5030951;28;20268;-77
2024/01/03 08:17:00;;;;;;;6.30;2.37;;;;;;;;;;5026163;28;20661;-77
2024/01/03 08:19:26;;;;;;;7.17;2.40;;;;;;;;;;5029326;28;20737;-77
2024/01/03 08:21:53;;;;;;;8.67;2.07;;;;;;;;;;5024528;28;20276;-77
2024/01/03 08:24:19;;;;;;;5.40;1.63;;;;;;;;;;5025469;28;20321;-77
2024/01/03 08:26:46;;;;;;;6.00;1.37;;;;;;;;;;5034424;28;20707;-78
2024/01/03 08:29:13;;;;;;;5.17;1.47;;;;;;;;;;5030349;28;20217;-77
2024/01/03 08:31:39;;;;;;;4.87;1.70;;;;;;;;;;5027156;28;20218;-77
2024/01/03 08:34:05;;;;;;;5.10;1.70;;;;;;;;;;5026240;28;20394;-77
2024/01/03 08:36:41;;;;;;;4.17;1.57;;;;;;;;;;5031404;28;20545;-77
2024/01/03 08:39:08;;;;;;;6.33;1.70;;;;;;;;;;5025650;28;20178;-77
2024/01/03 08:41:34;;;;;;;7.33;1.53;;;;;;;;;;5000324;28;20755;-78
2024/01/03 08:44:02;;;;;;;6.47;1.50;;;;;;;;;;5023129;28;20183;-78
2024/01/03 08:46:34;;;;;;;6.47;1.50;;;;;;;;;;5022292;28;20198;-77
2024/01/03 08:49:01;;;;;;;6.63;1.60;;;;;;;;;;5017926;28;20875;-78
2024/01/03 08:51:28;;;;;;;8.27;1.73;;;;;;;;;;5023693;28;20193;-77
2024/01/03 08:53:54;;;;;;;6.80;1.40;;;;;;;;;;5027705;28;20179;-76
2024/01/03 08:56:20;;;;;;;7.17;1.60;;;;;;;;;;5022803;28;20266;-75
2024/01/03 08:58:47;;;;;;;5.70;1.50;;;;;;;;;;5030320;28;20187;-78
2024/01/03 09:01:17;;;;;;;6.57;1.60;;;;;;;;;;5026950;28;20206;-75
2024/01/03 09:03:44;;;;;;;5.40;1.37;;;;;;;;;;5013432;28;20211;-76
2024/01/03 09:06:10;;;;;;;7.40;2.17;;;;;;;;;;5024589;28;20663;-75
2024/01/03 09:08:36;;;;;;;4.17;1.60;;;;;;;;;;5026864;28;20217;-77
2024/01/03 09:11:08;;;;;;;5.50;2.03;;;;;;;;;;5024554;28;20183;-80
2024/01/03 09:13:37;;;;;;;5.27;1.60;;;;;;;;;;5030063;28;20205;-80
2024/01/03 09:16:04;;;;;;;3.30;1.40;;;;;;;;;;5024442;28;20178;-79
2024/01/03 09:18:30;;;;;;;3.73;1.53;;;;;;;;;;5029082;28;20203;-79
2024/01/03 09:20:58;;;;;;;5.27;1.40;;;;;;;;;;5026040;28;20240;-79
2024/01/03 09:23:24;;;;;;;5.87;1.73;;;;;;;;;;5025667;28;20214;-79
2024/01/03 09:25:52;;;;;;;7.27;1.67;;;;;;;;;;5026452;28;20736;-79
2024/01/03 09:28:18;;;;;;;4.67;1.80;;;;;;;;;;5023363;28;20238;-79
2024/01/03 09:30:44;;;;;;;5.90;1.50;;;;;;;;;;5026950;28;20186;-79
2024/01/03 09:33:12;;;;;;;7.03;2.27;;;;;;;;;;5026929;28;20209;-79
2024/01/03 09:35:38;;;;;;;8.33;4.00;;;;;;;;;;5026720;28;20221;-79
2024/01/03 09:38:05;;;;;;;6.13;1.90;;;;;;;;;;5022463;28;20273;-79
2024/01/03 09:40:33;;;;;;;5.40;1.70;;;;;;;;;;5007045;28;20218;-79
2024/01/03 09:43:03;;;;;;;6.80;1.70;;;;;;;;;;5027763;28;20206;-80
2024/01/03 09:45:30;;;;;;;4.97;1.37;;;;;;;;;;5025056;28;20276;-79
2024/01/03 09:47:57;;;;;;;4.03;1.47;;;;;;;;;;5027623;28;20644;-79
2024/01/03 09:50:23;;;;;;;5.27;2.00;;;;;;;;;;5031383;28;20193;-79
2024/01/03 09:52:49;;;;;;;4.73;1.60;;;;;;;;;;4992575;28;20240;-80
2024/01/03 09:55:16;;;;;;;5.13;1.57;;;;;;;;;;5026817;28;20291;-79
2024/01/03 09:57:43;;;;;;;2.77;1.00;;;;;;;;;;5028356;28;20182;-78
2024/01/03 10:00:10;;;;;;;3.77;1.10;;;;;;;;;;5027825;28;20425;-83
2024/01/03 10:02:36;;;;;;;4.10;1.00;;;;;;;;;;5030460;28;20271;-78
2024/01/03 10:05:04;;;;;;;2.87;0.90;;;;;;;;;;5026128;28;20345;-78
2024/01/03 10:07:34;;;;;;;3.63;0.90;;;;;;;;;;5027886;28;20272;-80
2024/01/03 10:10:00;;;;;;;3.87;1.27;;;;;;;;;;5025635;28;20195;-78
2024/01/03 10:12:29;;;;;;;5.20;1.30;;;;;;;;;;5009774;28;20211;-82
2024/01/03 10:14:56;;;;;;;3.10;1.10;;;;;;;;;;5023243;28;20608;-82
2024/01/03 10:17:22;;;;;;;2.97;1.00;;;;;;;;;;5018408;28;20258;-80
2024/01/03 10:19:48;;;;;;;4.03;1.00;;;;;;;;;;5006540;28;20186;-72
2024/01/03 10:22:19;;;;;;;3.13;1.27;;;;;;;;;;5021503;28;20191;-72
2024/01/03 10:24:46;;;;;;;3.43;1.20;;;;;;;;;;5020368;28;20585;-75
2024/01/03 10:27:12;;;;;;;1.50;1.00;;;;;;;;;;5024890;28;20580;-72
2024/01/03 10:29:38;;;;;;;2.30;0.80;;;;;;;;;;5024492;28;20182;-73
2024/01/03 10:32:10;;;;;;;1.37;0.70;;;;;;;;;;5024984;28;20230;-74
2024/01/03 10:34:36;;;;;;;1.17;0.70;;;;;;;;;;5024451;28;20185;-75
2024/01/03 10:37:04;;;;;;;1.50;0.83;;;;;;;;;;5025896;28;20289;-74
2024/01/03 10:39:32;;;;;;;3.73;0.90;;;;;;;;;;5025724;28;20189;-74
2024/01/03 10:41:58;;;;;;;0.70;0.70;;;;;;;;;;5040868;28;20225;-90
2024/01/03 10:44:24;;;;;;;1.87;1.00;;;;;;;;;;5008495;28;20187;-74
2024/01/03 10:46:55;;;;;;;1.63;0.80;;;;;;;;;;5025941;28;20224;-78
2024/01/03 10:49:23;;;;;;;1.50;0.70;;;;;;;;;;5025372;28;20643;-75
2024/01/03 10:51:51;;;;;;;2.17;0.87;;;;;;;;;;5019982;28;20207;-75
2024/01/03 10:54:20;;;;;;;3.23;1.37;;;;;;;;;;5021011;28;20245;-73
2024/01/03 10:56:50;;;;;;;3.20;0.80;;;;;;;;;;5018700;28;20195;-73
2024/01/03 10:59:17;;;;;;;2.43;1.03;;;;;;;;;;5025354;28;20633;-73
2024/01/03 11:01:50;;;;;;;1.37;0.77;;;;;;;;;;5023388;28;20276;-73
2024/01/03 11:04:35;;;;;;;7.00;2.80;;;;;;;;;;5026497;28;20319;-73
2024/01/03 11:07:18;;;;;;;3.13;1.37;;;;;;;;;;5023670;28;20186;-76
2024/01/03 11:09:45;;;;;;;3.47;1.10;;;;;;;;;;5025662;28;20745;-72
2024/01/03 11:12:13;;;;;;;2.73;1.10;;;;;;;;;;5026915;28;20211;-73
2024/01/03 11:14:39;;;;;;;3.03;1.30;;;;;;;;;;5027799;28;20683;-73
2024/01/03 11:17:06;;;;;;;11.60;3.93;;;;;;;;;;5024082;28;20186;-71
2024/01/03 11:19:33;;;;;;;3.27;1.17;;;;;;;;;;5025650;28;20210;-74
2024/01/03 11:22:04;;;;;;;4.03;1.13;;;;;;;;;;5029575;28;20208;-73
2024/01/03 11:24:33;;;;;;;5.60;1.97;;;;;;;;;;5016552;28;20194;-73
2024/01/03 11:27:03;;;;;;;4.30;1.17;;;;;;;;;;5026896;28;20572;-74
2024/01/03 11:29:36;;;;;;;2.17;1.10;;;;;;;;;;5023970;28;20668;-74
2024/01/03 11:32:04;;;;;;;2.23;1.10;;;;;;;;;;5021632;28;20325;-77
2024/01/03 11:34:39;;;;;;;4.10;1.30;;;;;;;;;;5027129;28;20242;-74
2024/01/03 11:37:06;;;;;;;4.20;1.40;;;;;;;;;;5024554;28;20562;-74
2024/01/03 11:39:34;;;;;;;5.83;1.60;;;;;;;;;;5025144;28;20186;-74
2024/01/03 11:42:00;;;;;;;5.20;1.50;;;;;;;;;;5023324;28;20207;-74
2024/01/03 11:44:26;;;;;;;7.57;2.20;;;;;;;;;;5028200;28;20191;-74
2024/01/03 11:46:59;;;;;;;5.60;1.67;;;;;;;;;;5019438;28;20236;-74
2024/01/03 11:49:27;;;;;;;7.20;1.80;;;;;;;;;;5024481;28;20207;-73
2024/01/03 11:51:53;;;;;;;6.43;1.97;;;;;;;;;;5020485;28;20203;-74
2024/01/03 11:54:19;;;;;;;6.80;1.53;;;;;;;;;;5026452;28;20177;-74
2024/01/03 11:56:46;;;;;;;8.33;1.90;;;;;;;;;;5026932;28;20687;-74
2024/01/03 11:59:12;;;;;;;6.03;1.57;;;;;;;;;;5025868;28;20203;-74
2024/01/03 12:01:38;;;;;;;4.97;1.80;;;;;;;;;;5024180;28;20524;-76
2024/01/03 12:04:09;;;;;;;5.30;1.80;;;;;;;;;;5029215;28;20193;-77
2024/01/03 12:06:35;;;;;;;8.23;1.90;;;;;;;;;;5015303;28;20318;-80
2024/01/03 12:09:02;;;;;;;8.47;1.80;;;;;;;;;;5028760;28;20280;-80
2024/01/03 12:11:29;;;;;;;6.33;1.50;;;;;;;;;;5027563;28;20198;-81
2024/01/03 12:13:55;;;;;;;5.20;1.20;;;;;;;;;;5027214;28;20259;-80
2024/01/03 12:16:21;;;;;;;4.53;1.50;;;;;;;;;;5029893;28;20736;-80
2024/01/03 12:18:51;;;;;;;6.47;1.60;;;;;;;;;;5024893;28;20656;-80
2024/01/03 12:21:18;;;;;;;7.30;1.60;;;;;;;;;;5028030;28;20199;-80
2024/01/03 12:23:59;;;;;;;5.33;1.33;;;;;;;;;;5029203;28;20222;-80
2024/01/03 12:26:26;;;;;;;4.90;1.33;;;;;;;;;;5030408;28;20271;-80
2024/01/03 12:28:59;;;;;;;5.70;1.60;;;;;;;;;;5030467;28;20234;-80
2024/01/03 12:31:25;;;;;;;4.03;1.33;;;;;;;;;;5031257;28;20180;-80
2024/01/03 12:33:51;;;;;;;4.27;1.40;;;;;;;;;;5032072;28;20180;-80
2024/01/03 12:36:18;;;;;;;4.23;1.13;;;;;;;;;;5029819;28;20700;-80
2024/01/03 12:38:44;;;;;;;2.90;0.90;;;;;;;;;;5028359;28;20192;-80
2024/01/03 12:41:10;;;;;;;4.87;1.33;;;;;;;;;;5012567;28;20210;-80
2024/01/03 12:43:36;;;;;;;5.20;1.23;;;;;;;;;;5013638;28;20269;-80
2024/01/03 12:46:05;;;;;;;2.23;1.00;;;;;;;;;;5033417;28;20191;-80
2024/01/03 12:48:31;;;;;;;4.47;1.50;;;;;;;;;;5031306;28;20218;-80
2024/01/03 12:50:57;;;;;;;4.53;1.30;;;;;;;;;;5031155;28;20258;-80
2024/01/03 12:53:24;;;;;;;6.27;1.50;;;;;;;;;;5014590;28;20199;-80
2024/01/03 12:55:50;;;;;;;3.70;1.37;;;;;;;;;;5032310;28;20210;-80
2024/01/03 12:58:16;;;;;;;5.30;1.40;;;;;;;;;;5031890;28;20188;-80
2024/01/03 13:00:44;;;;;;;3.97;1.30;;;;;;;;;;5014468;28;20199;-80
2024/01/03 13:03:11;;;;;;;5.20;1.20;;;;;;;;;;5022695;28;20215;-80
2024/01/03 13:05:37;;;;;;;7.53;1.47;;;;;;;;;;5032256;28;20647;-80
2024/01/03 13:08:03;;;;;;;7.20;1.60;;;;;;;;;;5031014;28;20234;-80
2024/01/03 13:10:30;;;;;;;6.37;2.00;;;;;;;;;;5013797;28;20657;-80
2024/01/03 13:12:56;;;;;;;8.13;2.17;;;;;;;;;;5013708;28;20218;-81
2024/01/03 13:15:22;;;;;;;11.10;1.80;;;;;;;;;;5028337;28;20190;-81
2024/01/03 13:17:48;;;;;;;7.00;1.97;;;;;;;;;;5012542;28;20203;-81
2024/01/03 13:20:15;;;;;;;4.33;1.50;;;;;;;;;;5011664;28;20194;-81
2024/01/03 13:22:44;;;;;;;4.17;1.30;;;;;;;;;;5029138;28;20237;-81
2024/01/03 13:25:10;;;;;;;5.57;1.33;;;;;;;;;;5029345;28;20189;-81
2024/01/03 13:27:36;;;;;;;4.50;1.30;;;;;;;;;;5012739;28;20251;-81
2024/01/03 13:30:03;;;;;;;2.53;0.90;;;;;;;;;;5029573;28;20218;-82
2024/01/03 13:32:30;;;;;;;2.87;0.80;;;;;;;;;;5011593;28;20390;-81
2024/01/03 13:34:56;;;;;;;4.43;1.10;;;;;;;;;;5033018;28;20186;-81
2024/01/03 13:37:23;;;;;;;4.03;1.40;;;;;;;;;;5015822;28;20191;-81
2024/01/03 13:39:49;;;;;;;2.37;1.47;;;;;;;;;;5015401;28;20214;-81
2024/01/03 13:42:15;;;;;;;4.00;1.60;;;;;;;;;;5032828;28;20202;-81
2024/01/03 13:44:42;;;;;;;4.20;2.10;;;;;;;;;;5015973;28;20186;-81
2024/01/03 13:47:08;;;;;;;4.40;1.97;;;;;;;;;;5031544;28;20338;-81
2024/01/03 13:49:34;;;;;;;6.10;1.90;;;;;;;;;;4992848;28;20226;-81
2024/01/03 13:52:00;;;;;;;5.10;2.07;;;;;;;;;;5026116;28;20296;-83
2024/01/03 13:54:26;;;;;;;5.57;2.00;;;;;;;;;;5029472;28;20191;-81
2024/01/03 13:56:53;;;;;;;5.20;1.80;;;;;;;;;;5028992;28;20187;-80
2024/01/03 13:59:19;;;;;;;8.27;2.00;;;;;;;;;;5030735;28;20195;-82
2024/01/03 14:01:48;;;;;;;6.10;1.73;;;;;;;;;;5010509;28;20264;-79
2024/01/03 14:04:15;;;;;;;11.57;2.27;;;;;;;;;;5012203;28;20213;-80
2024/01/03 14:06:41;;;;;;;5.80;1.50;;;;;;;;;;5027564;28;20193;-80
2024/01/03 14:09:07;;;;;;;6.17;1.70;;;;;;;;;;5028465;28;20628;-80
2024/01/03 14:11:33;;;;;;;6.53;1.40;;;;;;;;;;5011998;28;20224;-80
2024/01/03 14:14:00;;;;;;;6.13;1.47;;;;;;;;;;5029330;28;20190;-80
2024/01/03 14:16:26;;;;;;;3.03;1.10;;;;;;;;;;5027950;28;20635;-80
2024/01/03 14:18:54;;;;;;;3.50;1.17;;;;;;;;;;5029207;28;20187;-80
2024/01/03 14:21:20;;;;;;;4.40;1.40;;;;;;;;;;5027459;28;20276;-80
2024/01/03 14:23:48;;;;;;;3.47;1.60;;;;;;;;;;4994219;28;20202;-80
2024/01/03 14:26:14;;;;;;;7.87;2.00;;;;;;;;;;5031337;28;20265;-81
2024/01/03 14:28:40;;;;;;;4.47;1.70;;;;;;;;;;5033970;28;20206;-80
2024/01/03 14:31:07;;;;;;;5.77;1.80;;;;;;;;;;5034239;28;20171;-80
2024/01/03 14:33:33;;;;;;;5.33;1.70;;;;;;;;;;5029030;28;20245;-81
2024/01/03 14:35:59;;;;;;;4.57;1.80;;;;;;;;;;5027051;28;20183;-80
2024/01/03 14:38:25;;;;;;;9.03;2.50;;;;;;;;;;5027655;28;20298;-81
2024/01/03 14:40:54;;;;;;;7.60;2.50;;;;;;;;;;5027815;28;20183;-81